createdAt,value
2023-05-14T00:01:02.294Z,57.93
2023-05-14T00:03:28.984Z,58.04
2023-05-14T00:05:55.525Z,58.66
2023-05-14T00:08:22.053Z,59.38
2023-05-14T00:10:48.609Z,58.64
2023-05-14T00:13:15.534Z,58.82
2023-05-14T00:15:42.118Z,58.65
2023-05-14T00:18:12.037Z,59.08
2023-05-14T00:20:38.626Z,59.28
2023-05-14T00:23:05.186Z,59.49
2023-05-14T00:25:31.740Z,59.05
2023-05-14T00:27:58.231Z,60.05
2023-05-14T00:30:24.996Z,60.77
2023-05-14T00:32:51.726Z,60.89
2023-05-14T00:35:18.362Z,60.89
2023-05-14T00:37:44.833Z,60.03
2023-05-14T00:40:12.940Z,60.31
2023-05-14T00:42:40.584Z,60.75
2023-05-14T00:45:07.670Z,61.41
2023-05-14T00:47:34.869Z,61.10
2023-05-14T00:50:03.530Z,61.42
2023-05-14T00:52:30.105Z,61.94
2023-05-14T00:54:57.071Z,61.30
2023-05-14T00:57:23.659Z,61.90
2023-05-14T00:59:50.737Z,61.60
2023-05-14T01:02:17.318Z,61.66
2023-05-14T01:04:43.928Z,61.96
2023-05-14T01:07:34.485Z,62.08
2023-05-14T01:10:06.587Z,62.03
2023-05-14T01:12:52.890Z,61.91
2023-05-14T01:15:28.650Z,62.39
2023-05-14T01:18:01.708Z,62.16
2023-05-14T01:20:28.291Z,63.16
2023-05-14T01:22:54.796Z,63.49
2023-05-14T01:25:21.315Z,63.13
2023-05-14T01:28:10.985Z,62.65
2023-05-14T01:30:58.351Z,63.58
2023-05-14T01:33:27.578Z,63.03
2023-05-14T01:35:55.355Z,63.54
2023-05-14T01:38:23.449Z,63.44
2023-05-14T01:40:50.825Z,63.77
2023-05-14T01:43:17.747Z,63.48
2023-05-14T01:45:44.527Z,64.07
2023-05-14T01:48:11.273Z,64.67
2023-05-14T01:50:37.940Z,63.95
2023-05-14T01:53:04.614Z,64.93
2023-05-14T01:55:31.272Z,64.25
2023-05-14T01:57:57.822Z,64.81
2023-05-14T02:00:27.679Z,64.31
2023-05-14T02:02:54.423Z,64.59
2023-05-14T02:05:23.038Z,64.78
2023-05-14T02:07:49.525Z,65.46
2023-05-14T02:10:16.143Z,64.71
2023-05-14T02:12:42.703Z,64.87
2023-05-14T02:15:10.983Z,64.80
2023-05-14T02:17:38.157Z,65.03
2023-05-14T02:20:05.469Z,65.09
2023-05-14T02:22:32.158Z,65.61
2023-05-14T02:24:58.845Z,65.77
2023-05-14T02:27:25.385Z,66.00
2023-05-14T02:29:52.881Z,66.10
2023-05-14T02:32:19.464Z,66.13
2023-05-14T02:34:45.969Z,65.77
2023-05-14T02:37:12.678Z,66.01
2023-05-14T02:39:39.158Z,65.92
2023-05-14T02:42:06.990Z,66.26
2023-05-14T02:44:33.606Z,65.70
2023-05-14T02:47:00.211Z,66.05
2023-05-14T02:49:26.744Z,66.59
2023-05-14T02:51:54.386Z,66.26
2023-05-14T02:54:20.974Z,67.05
2023-05-14T02:56:47.590Z,66.68
2023-05-14T02:59:14.439Z,67.01
2023-05-14T03:01:41.604Z,67.65
2023-05-14T03:04:08.718Z,67.53
2023-05-14T03:06:35.355Z,67.95
2023-05-14T03:09:01.865Z,68.02
2023-05-14T03:11:28.480Z,67.56
2023-05-14T03:13:55.093Z,67.46
2023-05-14T03:16:21.635Z,67.96
2023-05-14T03:18:48.250Z,67.80
2023-05-14T03:21:14.827Z,68.03
2023-05-14T03:23:41.499Z,68.56
2023-05-14T03:26:08.382Z,68.42
2023-05-14T03:28:34.875Z,68.14
2023-05-14T03:31:01.593Z,68.48
2023-05-14T03:33:28.318Z,68.60
2023-05-14T03:35:54.798Z,68.75
2023-05-14T03:38:21.403Z,68.88
2023-05-14T03:40:47.895Z,68.92
2023-05-14T03:43:14.594Z,68.94
2023-05-14T03:45:41.358Z,69.34
2023-05-14T03:48:08.202Z,69.50
2023-05-14T03:50:35.098Z,69.25
2023-05-14T03:53:01.710Z,69.18
2023-05-14T03:55:29.997Z,69.67
2023-05-14T03:57:56.570Z,70.05
2023-05-14T04:00:23.462Z,69.89
2023-05-14T04:02:52.215Z,69.95
2023-05-14T04:05:18.792Z,70.29
2023-05-14T04:07:46.159Z,70.27
2023-05-14T04:10:13.808Z,70.11
2023-05-14T04:12:40.287Z,69.95
2023-05-14T04:15:08.373Z,69.81
2023-05-14T04:17:35.371Z,70.39
2023-05-14T04:20:01.895Z,70.35
2023-05-14T04:22:28.448Z,70.08
2023-05-14T04:24:54.940Z,70.26
2023-05-14T04:27:21.648Z,70.48
2023-05-14T04:29:49.271Z,70.38
2023-05-14T04:32:15.765Z,70.28
2023-05-14T04:34:42.424Z,70.19
2023-05-14T04:37:08.921Z,70.40
2023-05-14T04:39:35.486Z,70.32
2023-05-14T04:42:02.014Z,70.53
2023-05-14T04:44:28.625Z,70.78
2023-05-14T04:46:55.648Z,70.64
2023-05-14T04:49:22.320Z,70.75
2023-05-14T04:51:49.351Z,70.56
2023-05-14T04:54:15.890Z,71.37
2023-05-14T04:56:42.438Z,70.75
2023-05-14T04:59:09.015Z,71.47
2023-05-14T05:01:35.637Z,71.34
2023-05-14T05:04:02.277Z,71.31
2023-05-14T05:06:28.829Z,71.88
2023-05-14T05:08:55.724Z,71.76
2023-05-14T05:11:22.269Z,71.61
2023-05-14T05:13:48.764Z,71.88
2023-05-14T05:16:15.626Z,71.60
2023-05-14T05:18:42.279Z,71.72
2023-05-14T05:21:08.766Z,72.05
2023-05-14T05:23:35.348Z,71.97
2023-05-14T05:26:01.908Z,72.10
2023-05-14T05:28:28.446Z,72.25
2023-05-14T05:30:55.178Z,72.69
2023-05-14T05:33:21.821Z,72.68
2023-05-14T05:35:48.776Z,72.74
2023-05-14T05:38:15.645Z,72.84
2023-05-14T05:40:42.129Z,72.77
2023-05-14T05:43:08.625Z,72.66
2023-05-14T05:45:35.068Z,73.33
2023-05-14T05:48:01.643Z,72.95
2023-05-14T05:50:28.174Z,73.22
2023-05-14T05:52:54.651Z,73.28
2023-05-14T05:55:21.284Z,73.57
2023-05-14T05:57:47.872Z,73.10
2023-05-14T06:00:15.094Z,73.12
2023-05-14T06:02:41.818Z,73.08
2023-05-14T06:05:10.195Z,73.39
2023-05-14T06:07:36.782Z,73.25
2023-05-14T06:10:03.524Z,73.32
2023-05-14T06:12:30.063Z,73.48
2023-05-14T06:14:57.831Z,73.34
2023-05-14T06:17:25.137Z,73.49
2023-05-14T06:19:52.237Z,73.82
2023-05-14T06:22:19.195Z,74.25
2023-05-14T06:24:45.843Z,73.88
2023-05-14T06:27:12.342Z,73.88
2023-05-14T06:29:38.991Z,73.94
2023-05-14T06:32:05.941Z,74.46
2023-05-14T06:34:32.526Z,74.99
2023-05-14T06:36:59.135Z,75.51
2023-05-14T06:39:25.715Z,75.32
2023-05-14T06:41:52.294Z,74.23
2023-05-14T06:44:19.552Z,74.51
2023-05-14T06:46:46.097Z,74.80
2023-05-14T06:49:12.656Z,74.76
2023-05-14T06:51:40.634Z,74.40
2023-05-14T06:54:07.155Z,75.20
2023-05-14T06:56:33.641Z,74.04
2023-05-14T06:59:00.228Z,75.32
2023-05-14T07:01:26.819Z,75.26
2023-05-14T07:03:53.458Z,74.96
2023-05-14T07:06:20.339Z,74.91
2023-05-14T07:08:46.962Z,75.65
2023-05-14T07:11:13.578Z,75.37
2023-05-14T07:13:40.712Z,75.05
2023-05-14T07:16:10.135Z,75.59
2023-05-14T07:18:36.829Z,75.72
2023-05-14T07:21:06.407Z,75.46
2023-05-14T07:23:36.224Z,76.36
2023-05-14T07:26:03.329Z,75.64
2023-05-14T07:28:29.811Z,75.62
2023-05-14T07:30:56.381Z,75.48
2023-05-14T07:33:24.605Z,75.07
2023-05-14T07:35:51.447Z,75.17
2023-05-14T07:38:19.068Z,75.10
2023-05-14T07:40:45.916Z,74.80
2023-05-14T07:43:12.771Z,75.19
2023-05-14T07:45:39.418Z,75.26
2023-05-14T07:48:06.449Z,75.02
2023-05-14T07:50:33.169Z,73.68
2023-05-14T07:52:59.720Z,73.81
2023-05-14T07:55:26.231Z,73.54
2023-05-14T07:57:52.768Z,72.46
2023-05-14T08:00:19.401Z,72.40
2023-05-14T08:02:46.198Z,72.71
2023-05-14T08:05:12.877Z,72.40
2023-05-14T08:07:39.412Z,72.14
2023-05-14T08:10:07.709Z,72.66
2023-05-14T08:12:34.305Z,72.78
2023-05-14T08:15:00.807Z,72.76
2023-05-14T08:17:27.369Z,72.49
2023-05-14T08:19:54.163Z,73.32
2023-05-14T08:22:21.716Z,72.63
2023-05-14T08:24:48.786Z,72.34
2023-05-14T08:27:16.623Z,72.20
2023-05-14T08:29:43.201Z,73.00
2023-05-14T08:32:22.211Z,70.91
2023-05-14T08:34:49.706Z,70.83
2023-05-14T08:37:16.239Z,70.50
2023-05-14T08:39:42.771Z,70.84
2023-05-14T08:42:13.051Z,71.03
2023-05-14T08:44:52.484Z,72.25
2023-05-14T08:47:21.946Z,70.70
2023-05-14T08:50:02.476Z,69.23
2023-05-14T08:52:29.108Z,69.30
2023-05-14T08:54:57.258Z,68.95
2023-05-14T08:57:26.478Z,70.45
2023-05-14T08:59:53.779Z,70.36
2023-05-14T09:02:27.548Z,69.21
2023-05-14T09:05:01.385Z,69.55
2023-05-14T09:07:28.079Z,69.96
2023-05-14T09:09:55.401Z,69.37
2023-05-14T09:12:22.446Z,67.86
2023-05-14T09:14:50.029Z,67.74
2023-05-14T09:17:17.485Z,68.97
2023-05-14T09:19:47.242Z,67.55
2023-05-14T09:22:15.968Z,68.12
2023-05-14T09:24:42.932Z,68.98
2023-05-14T09:27:15.221Z,68.69
2023-05-14T09:29:41.698Z,68.90
2023-05-14T09:32:10.202Z,67.83
2023-05-14T09:34:39.504Z,68.29
2023-05-14T09:37:08.580Z,66.32
2023-05-14T09:39:37.229Z,66.30
2023-05-14T09:42:04.720Z,68.11
2023-05-14T09:44:31.902Z,68.05
2023-05-14T09:46:58.562Z,69.37
2023-05-14T09:49:25.175Z,68.30
2023-05-14T09:51:51.656Z,67.66
2023-05-14T09:54:18.326Z,65.95
2023-05-14T09:56:44.950Z,64.47
2023-05-14T09:59:11.608Z,64.47
2023-05-14T10:01:38.691Z,65.51
2023-05-14T10:04:09.280Z,65.26
2023-05-14T10:06:39.829Z,64.19
2023-05-14T10:09:12.940Z,61.09
2023-05-14T10:11:44.135Z,61.99
2023-05-14T10:14:24.891Z,63.88
2023-05-14T10:16:53.105Z,64.85
2023-05-14T10:19:23.754Z,64.78
2023-05-14T10:21:57.266Z,64.75
2023-05-14T10:24:25.604Z,63.96
2023-05-14T10:26:52.785Z,63.59
2023-05-14T10:29:19.311Z,62.04
2023-05-14T10:31:47.407Z,61.54
2023-05-14T10:34:40.625Z,62.47
2023-05-14T10:37:18.942Z,64.12
2023-05-14T10:39:45.461Z,59.00
2023-05-14T10:42:16.441Z,61.66
2023-05-14T10:44:53.406Z,62.18
2023-05-14T10:47:20.449Z,61.13
2023-05-14T10:49:50.604Z,59.82
2023-05-14T10:52:21.002Z,59.70
2023-05-14T10:54:51.775Z,58.96
2023-05-14T10:57:19.445Z,59.65
2023-05-14T10:59:47.878Z,56.15
2023-05-14T11:02:31.715Z,56.63
2023-05-14T11:05:08.133Z,59.49
2023-05-14T11:07:45.927Z,59.88
2023-05-14T11:10:14.517Z,56.25
2023-05-14T11:12:43.860Z,56.32
2023-05-14T11:15:16.159Z,55.89
2023-05-14T11:17:43.873Z,51.56
2023-05-14T11:20:11.808Z,54.83
2023-05-14T11:22:39.550Z,54.92
2023-05-14T11:25:07.221Z,53.96
2023-05-14T11:27:35.870Z,52.74
2023-05-14T11:30:03.845Z,52.82
2023-05-14T11:32:32.666Z,54.32
2023-05-14T11:34:59.180Z,52.58
2023-05-14T11:37:25.752Z,52.42
2023-05-14T11:39:56.462Z,55.10
2023-05-14T11:42:23.697Z,51.17
2023-05-14T11:44:51.830Z,54.27
2023-05-14T11:47:20.648Z,53.65
2023-05-14T11:49:48.495Z,53.05
2023-05-14T11:52:16.484Z,54.56
2023-05-14T11:54:44.097Z,54.94
2023-05-14T11:57:12.853Z,52.18
2023-05-14T11:59:39.994Z,52.83
2023-05-14T12:02:11.680Z,51.70
2023-05-14T12:04:38.689Z,50.85
2023-05-14T12:07:13.493Z,51.50
2023-05-14T12:09:49.690Z,52.77
2023-05-14T12:12:19.257Z,53.49
2023-05-14T12:14:45.790Z,52.63
2023-05-14T12:17:19.671Z,52.95
2023-05-14T12:19:48.325Z,51.83
2023-05-14T12:22:17.527Z,52.97
2023-05-14T12:24:52.323Z,48.17
2023-05-14T12:27:22.444Z,48.42
2023-05-14T12:29:48.929Z,50.32
2023-05-14T12:32:15.576Z,48.93
2023-05-14T12:34:42.100Z,48.96
2023-05-14T12:37:08.640Z,50.63
2023-05-14T12:39:35.606Z,49.54
2023-05-14T12:42:02.264Z,47.19
2023-05-14T12:44:29.094Z,47.43
2023-05-14T12:46:55.815Z,46.87
2023-05-14T12:49:22.433Z,44.40
2023-05-14T12:51:51.178Z,44.19
2023-05-14T12:54:19.302Z,42.29
2023-05-14T12:56:45.928Z,42.39
2023-05-14T12:59:12.447Z,44.23
2023-05-14T13:01:38.970Z,44.53
2023-05-14T13:04:05.678Z,45.19
2023-05-14T13:06:32.570Z,43.57
2023-05-14T13:09:01.660Z,43.56
2023-05-14T13:11:30.290Z,43.54
2023-05-14T13:13:56.908Z,44.29
2023-05-14T13:16:23.538Z,41.70
2023-05-14T13:18:50.165Z,41.75
2023-05-14T13:21:16.665Z,40.94
2023-05-14T13:23:43.176Z,43.14
2023-05-14T13:26:09.855Z,43.74
2023-05-14T13:28:36.371Z,43.43
2023-05-14T13:31:06.281Z,45.79
2023-05-14T13:33:34.756Z,45.32
2023-05-14T13:36:01.574Z,45.70
2023-05-14T13:38:28.162Z,44.61
2023-05-14T13:40:57.188Z,47.12
2023-05-14T13:43:23.868Z,46.94
2023-05-14T13:45:51.082Z,47.53
2023-05-14T13:48:17.748Z,46.59
2023-05-14T13:50:44.275Z,47.72
2023-05-14T13:53:10.850Z,48.84
2023-05-14T13:55:37.405Z,49.98
2023-05-14T13:58:04.766Z,47.66
2023-05-14T14:00:31.271Z,49.71
2023-05-14T14:02:57.987Z,49.14
2023-05-14T14:05:28.262Z,46.55
2023-05-14T14:08:00.865Z,47.28
2023-05-14T14:10:34.685Z,47.42
2023-05-14T14:13:01.165Z,49.60
2023-05-14T14:15:27.656Z,47.21
2023-05-14T14:17:54.352Z,48.26
2023-05-14T14:20:20.843Z,49.07
2023-05-14T14:22:47.406Z,48.60
2023-05-14T14:25:13.937Z,47.02
2023-05-14T14:27:40.883Z,45.05
2023-05-14T14:30:15.866Z,44.96
2023-05-14T14:32:44.461Z,47.07
2023-05-14T14:35:12.376Z,47.50
2023-05-14T14:37:39.030Z,46.38
2023-05-14T14:40:10.256Z,45.00
2023-05-14T14:42:37.757Z,44.76
2023-05-14T14:45:05.417Z,44.26
2023-05-14T14:47:32.083Z,45.17
2023-05-14T14:49:58.981Z,44.98
2023-05-14T14:52:26.253Z,45.33
2023-05-14T14:54:53.942Z,45.86
2023-05-14T14:57:21.498Z,46.82
2023-05-14T14:59:48.958Z,47.83
2023-05-14T15:02:15.658Z,47.86
2023-05-14T15:04:42.186Z,48.41
2023-05-14T15:07:08.689Z,46.41
2023-05-14T15:09:35.501Z,46.72
2023-05-14T15:12:02.089Z,47.81
2023-05-14T15:14:28.651Z,46.83
2023-05-14T15:16:55.429Z,47.24
2023-05-14T15:19:22.038Z,47.11
2023-05-14T15:21:48.604Z,45.97
2023-05-14T15:24:15.131Z,46.68
2023-05-14T15:26:41.949Z,46.39
2023-05-14T15:29:08.524Z,46.84
2023-05-14T15:31:35.052Z,45.82
2023-05-14T15:34:01.598Z,42.99
2023-05-14T15:36:28.634Z,43.21
2023-05-14T15:38:55.400Z,42.42
2023-05-14T15:41:22.716Z,42.13
2023-05-14T15:43:49.233Z,40.26
2023-05-14T15:46:15.776Z,41.73
2023-05-14T15:48:42.310Z,41.01
2023-05-14T15:51:08.811Z,42.11
2023-05-14T15:53:35.410Z,41.23
2023-05-14T15:56:02.760Z,41.01
2023-05-14T15:58:29.263Z,40.04
2023-05-14T16:00:56.066Z,41.00
2023-05-14T16:03:22.670Z,40.25
2023-05-14T16:05:49.298Z,40.42
2023-05-14T16:08:15.801Z,40.31
2023-05-14T16:10:42.338Z,41.11
2023-05-14T16:13:08.811Z,42.26
2023-05-14T16:15:35.552Z,43.10
2023-05-14T16:18:02.204Z,42.98
2023-05-14T16:20:28.779Z,43.47
2023-05-14T16:22:55.376Z,43.82
2023-05-14T16:25:21.854Z,44.58
2023-05-14T16:27:48.418Z,43.00
2023-05-14T16:30:15.045Z,42.42
2023-05-14T16:32:42.163Z,42.86
2023-05-14T16:35:09.894Z,42.98
2023-05-14T16:37:36.413Z,42.85
2023-05-14T16:40:03.169Z,42.85
2023-05-14T16:42:29.640Z,43.36
2023-05-14T16:44:56.121Z,44.57
2023-05-14T16:47:22.676Z,45.88
2023-05-14T16:49:49.190Z,46.40
2023-05-14T16:52:15.676Z,46.67
2023-05-14T16:54:42.141Z,47.30
2023-05-14T16:57:08.624Z,47.92
2023-05-14T16:59:35.328Z,48.77
2023-05-14T17:02:01.874Z,50.66
2023-05-14T17:04:28.481Z,53.45
2023-05-14T17:06:57.257Z,56.69
2023-05-14T17:09:23.833Z,57.87
2023-05-14T17:11:50.772Z,59.75
2023-05-14T17:14:17.325Z,60.47
2023-05-14T17:16:43.965Z,60.71
2023-05-14T17:19:10.995Z,61.09
2023-05-14T17:21:37.680Z,61.49
2023-05-14T17:24:04.261Z,61.51
2023-05-14T17:26:30.786Z,61.66
2023-05-14T17:28:57.281Z,61.68
2023-05-14T17:31:23.947Z,62.18
2023-05-14T17:33:50.613Z,62.60
2023-05-14T17:36:17.176Z,62.50
2023-05-14T17:38:43.695Z,62.78
2023-05-14T17:41:10.180Z,62.89
2023-05-14T17:43:36.689Z,63.29
2023-05-14T17:46:03.591Z,63.98
2023-05-14T17:48:30.194Z,63.80
2023-05-14T17:50:56.742Z,63.91
2023-05-14T17:53:23.309Z,64.31
2023-05-14T17:55:50.115Z,64.40
2023-05-14T17:58:16.710Z,64.22
2023-05-14T18:00:44.020Z,64.17
2023-05-14T18:03:11.217Z,64.23
2023-05-14T18:05:37.928Z,64.44
2023-05-14T18:08:04.589Z,64.33
2023-05-14T18:10:31.176Z,64.31
2023-05-14T18:12:57.725Z,64.66
2023-05-14T18:15:25.683Z,64.38
2023-05-14T18:17:52.879Z,64.41
2023-05-14T18:20:19.894Z,64.21
2023-05-14T18:22:46.443Z,64.71
2023-05-14T18:25:13.612Z,64.87
2023-05-14T18:27:44.310Z,65.15
2023-05-14T18:30:15.315Z,65.26
2023-05-14T18:32:44.163Z,65.29
2023-05-14T18:35:12.092Z,65.60
2023-05-14T18:37:38.706Z,65.90
2023-05-14T18:40:06.917Z,66.07
2023-05-14T18:42:34.032Z,66.20
2023-05-14T18:45:00.655Z,66.24
2023-05-14T18:47:27.449Z,66.28
2023-05-14T18:49:55.777Z,66.36
2023-05-14T18:52:22.933Z,66.21
2023-05-14T18:54:50.554Z,66.06
2023-05-14T18:57:17.199Z,66.18
2023-05-14T18:59:43.690Z,66.17
2023-05-14T19:02:10.210Z,66.32
2023-05-14T19:04:50.754Z,66.77
2023-05-14T19:07:18.835Z,67.13
2023-05-14T19:09:45.448Z,66.99
2023-05-14T19:12:12.341Z,67.24
2023-05-14T19:14:38.865Z,67.26
2023-05-14T19:17:05.718Z,67.29
2023-05-14T19:19:32.625Z,67.25
2023-05-14T19:21:59.128Z,67.32
2023-05-14T19:24:25.836Z,67.25
2023-05-14T19:26:52.682Z,67.33
2023-05-14T19:29:19.296Z,67.55
2023-05-14T19:31:45.939Z,67.55
2023-05-14T19:34:12.508Z,67.84
2023-05-14T19:36:38.989Z,67.96
2023-05-14T19:39:05.910Z,68.38
2023-05-14T19:41:32.489Z,68.30
2023-05-14T19:43:59.004Z,68.36
2023-05-14T19:46:26.135Z,68.22
2023-05-14T19:48:52.831Z,68.03
2023-05-14T19:51:19.365Z,67.90
2023-05-14T19:53:45.985Z,68.08
2023-05-14T19:56:12.511Z,68.12
2023-05-14T19:58:39.295Z,68.32
2023-05-14T20:01:05.869Z,68.16
2023-05-14T20:03:33.428Z,68.35
2023-05-14T20:06:00.148Z,68.31
2023-05-14T20:08:26.783Z,68.34
2023-05-14T20:10:53.313Z,68.39
2023-05-14T20:13:19.918Z,68.13
2023-05-14T20:15:46.685Z,68.25
2023-05-14T20:18:13.362Z,68.55
2023-05-14T20:20:40.000Z,68.28
2023-05-14T20:23:06.551Z,68.33
2023-05-14T20:25:33.336Z,68.81
2023-05-14T20:28:00.734Z,68.82
2023-05-14T20:30:28.047Z,68.80
2023-05-14T20:32:54.905Z,68.83
2023-05-14T20:35:21.494Z,68.95
2023-05-14T20:37:49.405Z,68.86
2023-05-14T20:40:16.008Z,69.04
2023-05-14T20:42:42.574Z,69.25
2023-05-14T20:45:10.628Z,68.93
2023-05-14T20:47:37.358Z,68.84
2023-05-14T20:50:04.666Z,68.96
2023-05-14T20:52:31.230Z,69.24
2023-05-14T20:54:59.428Z,69.09
2023-05-14T20:57:28.295Z,68.89
2023-05-14T20:59:54.888Z,69.41
2023-05-14T21:02:21.548Z,69.52
2023-05-14T21:04:48.208Z,69.55
2023-05-14T21:07:14.872Z,69.81
2023-05-14T21:09:41.925Z,70.14
2023-05-14T21:12:08.790Z,69.79
2023-05-14T21:14:35.492Z,70.35
2023-05-14T21:17:02.137Z,70.27
2023-05-14T21:19:28.669Z,70.08
2023-05-14T21:21:55.334Z,70.61
2023-05-14T21:24:21.931Z,70.25
2023-05-14T21:26:48.503Z,70.59
2023-05-14T21:29:15.057Z,70.66
2023-05-14T21:31:41.643Z,70.88
2023-05-14T21:34:08.159Z,70.54
2023-05-14T21:36:34.734Z,70.66
2023-05-14T21:39:01.299Z,70.53
2023-05-14T21:41:27.843Z,70.19
2023-05-14T21:43:54.377Z,70.85
2023-05-14T21:46:21.104Z,70.41
2023-05-14T21:48:47.736Z,70.74
2023-05-14T21:51:14.506Z,71.43
2023-05-14T21:53:41.173Z,71.74
2023-05-14T21:56:08.253Z,71.67
2023-05-14T21:58:35.634Z,70.68
2023-05-14T22:01:02.260Z,71.27
2023-05-14T22:03:28.886Z,71.03
2023-05-14T22:05:56.164Z,70.48
2023-05-14T22:08:23.348Z,71.13
2023-05-14T22:10:49.831Z,71.30
2023-05-14T22:13:16.388Z,70.98
2023-05-14T22:15:43.006Z,71.08
2023-05-14T22:18:09.742Z,71.04
2023-05-14T22:20:36.303Z,71.19
2023-05-14T22:23:02.765Z,71.31
2023-05-14T22:25:29.319Z,71.41
2023-05-14T22:27:55.852Z,71.40
2023-05-14T22:30:22.353Z,71.34
2023-05-14T22:32:48.875Z,71.63
2023-05-14T22:35:15.606Z,71.73
2023-05-14T22:37:42.146Z,71.70
2023-05-14T22:40:09.105Z,71.97
2023-05-14T22:42:35.790Z,71.87
2023-05-14T22:45:02.394Z,71.89
2023-05-14T22:47:29.084Z,71.95
2023-05-14T22:49:55.647Z,72.68
2023-05-14T22:52:22.225Z,72.54
2023-05-14T22:54:51.033Z,72.61
2023-05-14T22:57:18.006Z,71.88
2023-05-14T22:59:44.517Z,72.28
2023-05-14T23:02:11.180Z,72.25
2023-05-14T23:04:37.819Z,71.80
2023-05-14T23:07:04.550Z,71.59
2023-05-14T23:09:31.078Z,71.66
2023-05-14T23:11:57.636Z,71.60
2023-05-14T23:14:24.211Z,71.85
2023-05-14T23:16:50.738Z,72.16
2023-05-14T23:19:17.349Z,72.34
2023-05-14T23:21:43.908Z,72.13
2023-05-14T23:24:10.486Z,72.41
2023-05-14T23:26:37.086Z,72.26
2023-05-14T23:29:03.657Z,73.00
2023-05-14T23:31:30.336Z,72.88
2023-05-14T23:33:57.280Z,73.11
2023-05-14T23:36:24.020Z,73.66
2023-05-14T23:38:51.225Z,73.43
2023-05-14T23:41:17.708Z,73.39
2023-05-14T23:43:44.230Z,73.96
2023-05-14T23:46:10.996Z,73.84
2023-05-14T23:48:37.620Z,73.95
2023-05-14T23:51:04.209Z,74.14
2023-05-14T23:53:30.688Z,74.26
2023-05-14T23:55:57.330Z,73.95
2023-05-14T23:58:23.932Z,73.84
